^^
Meteo Knjazevac Station Historical Data
Daily Summary for June 13, 2021 Units:  Metric    English   Both
Daily Weekly Monthly Yearly Custom
  High: Low: Average:
Temperature: -0.6 °C -0.8 °C -0.7 °C
Dew Point: -0.7 °C -1 °C -0.8 °C
Humidity: 99% 98% 99%
Wind Speed: 8km/h 0km/h 3.2km/h
Wind Gust: 19.3km/h - -
Wind- - SW
Pressure: 1012.8 hPa 1012.4 hPa -
Precipitation: 0 mm    
Historical Graphs
 
 
Tabular Data for June 13, 2021
Time Temperature Dew Point Pressure Wind Wind Speed Wind Gust Humidity Rainfall Rate (Hourly) solar Conditions
00:00 -0.6 °C -0.7 °C 1012.8 hPa SW 4.8 km/h 11.3 km/h 99% 0 mm 0 W/m2
00:10 -0.6 °C -0.7 °C 1012.8 hPa SW 3.2 km/h 9.7 km/h 99% 0 mm 0 W/m2
00:20 -0.6 °C -0.7 °C 1012.8 hPa SW 1.6 km/h 4.8 km/h 99% 0 mm 0 W/m2
00:30 -0.6 °C -0.7 °C 1012.8 hPa South 3.2 km/h 8 km/h 99% 0 mm 0 W/m2
00:40 -0.6 °C -0.7 °C 1012.8 hPa SW 4.8 km/h 8 km/h 99% 0 mm 0 W/m2
00:50 -0.6 °C -0.7 °C 1012.8 hPa SW 8 km/h 19.3 km/h 99% 0 mm 0 W/m2
01:00 -0.7 °C -0.8 °C 1012.8 hPa SW 8 km/h 19.3 km/h 99% 0 mm 0 W/m2
01:10 -0.7 °C -0.8 °C 1012.8 hPa SW 3.2 km/h 9.7 km/h 99% 0 mm 0 W/m2
01:20 -0.7 °C -0.8 °C 1012.8 hPa SSW 3.2 km/h 9.7 km/h 99% 0 mm 0 W/m2
01:30 -0.7 °C -0.8 °C 1012.8 hPa SW 3.2 km/h 8 km/h 99% 0 mm 0 W/m2
01:40 -0.7 °C -0.8 °C 1012.8 hPa SSW 1.6 km/h 6.4 km/h 99% 0 mm 0 W/m2
01:50 -0.8 °C -0.9 °C 1012.8 hPa WSW 1.6 km/h 4.8 km/h 99% 0 mm 0 W/m2
02:00 -0.7 °C -0.8 °C 1012.8 hPa WSW 1.6 km/h 6.4 km/h 99% 0 mm 0 W/m2
02:10 -0.7 °C -0.8 °C 1012.8 hPa SW 3.2 km/h 9.7 km/h 99% 0 mm 0 W/m2
02:20 -0.7 °C -0.8 °C 1012.8 hPa SSW 1.6 km/h 8 km/h 99% 0 mm 0 W/m2
02:30 -0.7 °C -0.8 °C 1012.8 hPa SSW 3.2 km/h 8 km/h 99% 0 mm 0 W/m2
02:40 -0.7 °C -0.8 °C 1012.8 hPa SW 3.2 km/h 8 km/h 99% 0 mm 0 W/m2
02:50 -0.7 °C -0.8 °C 1012.8 hPa SW 1.6 km/h 4.8 km/h 99% 0 mm 0 W/m2
03:00 -0.7 °C -0.8 °C 1012.8 hPa SW 3.2 km/h 6.4 km/h 99% 0 mm 0 W/m2
03:10 -0.7 °C -0.8 °C 1012.8 hPa WSW 1.6 km/h 6.4 km/h 99% 0 mm 0 W/m2
03:20 -0.7 °C -0.8 °C 1012.8 hPa WSW 4.8 km/h 9.7 km/h 99% 0 mm 0 W/m2
03:30 -0.7 °C -0.8 °C 1012.4 hPa SSW 3.2 km/h 11.3 km/h 99% 0 mm 0 W/m2
03:40 -0.7 °C -0.8 °C 1012.8 hPa SW 1.6 km/h 8 km/h 99% 0 mm 0 W/m2
03:50 -0.7 °C -0.8 °C 1012.8 hPa SSW 3.2 km/h 6.4 km/h 99% 0 mm 0 W/m2
04:00 -0.7 °C -0.8 °C 1012.8 hPa SW 3.2 km/h 11.3 km/h 99% 0 mm 0 W/m2
04:10 -0.6 °C -0.7 °C 1012.8 hPa SW 4.8 km/h 12.9 km/h 99% 0 mm 0 W/m2
04:20 -0.7 °C -1 °C 1012.4 hPa SW 4.8 km/h 11.3 km/h 98% 0 mm 0 W/m2
04:30 -0.7 °C -1 °C 1012.8 hPa SW 4.8 km/h 12.9 km/h 98% 0 mm 0 W/m2
04:40 -0.6 °C -0.9 °C 1012.8 hPa WSW 4.8 km/h 14.5 km/h 98% 0 mm 0 W/m2
04:50 -0.7 °C -1 °C 1012.8 hPa WSW 1.6 km/h 9.7 km/h 98% 0 mm 0 W/m2
05:00 -0.6 °C -0.9 °C 1012.8 hPa SW 1.6 km/h 11.3 km/h 98% 0 mm 0 W/m2
05:10 -0.7 °C -1 °C 1012.8 hPa SW 1.6 km/h 4.8 km/h 98% 0 mm 0 W/m2
05:20 -0.7 °C -1 °C 1012.8 hPa SW 3.2 km/h 6.4 km/h 98% 0 mm 0 W/m2
05:30 -0.7 °C -1 °C 1012.4 hPa Calm   8 km/h 98% 0 mm 0 W/m2
05:40 -0.7 °C -1 °C 1012.8 hPa South 1.6 km/h 8 km/h 98% 0 mm 0 W/m2
05:50 -0.7 °C -0.8 °C 1012.4 hPa SSE 1.6 km/h 8 km/h 99% 0 mm 0 W/m2
06:00 -0.7 °C -0.8 °C 1012.4 hPa SSE 4.8 km/h 17.7 km/h 99% 0 mm 0 W/m2
06:10 -0.7 °C -0.8 °C 1012.4 hPa SSW 3.2 km/h 9.7 km/h 99% 0 mm 0 W/m2
Knjazevac, Serbia
Compliments of Weather Underground - 2 mb